Flight Track Log - Related Links

Times and Time Zones

All times are in EDT time to prevent confusion due to time zone crossing. See the DAL1515 flight status page for this flight to view local times or setup timezone preferences in your user account.

Time Position Orientation Groundspeed Altitude Reporting Facility
EDT Latitude Longitude Course Direction KTS MPH feet Rate Location/Type
Sun 09:57:20 PM 33.6500 -84.4667 North 175 201 2,600  Level Atlanta TRACON
Sun 09:58:26 PM 33.6833 -84.5500 296° West 262 302 4,800 2,524 Climbing Atlanta TRACON
Sun 09:59:00 PM 33.8372 -84.1706 320° Northwest  Level FlightAware Approximate
Sun 09:59:26 PM 33.7500 -84.5833 337° Northwest 284 327 7,900  Level Atlanta TRACON
Sun 10:00:00 PM 33.9319 -84.2652 320° Northwest  Level FlightAware Approximate
Sun 10:01:00 PM 34.0545 -84.2667 North  Level FlightAware Approximate
Sun 10:01:43 PM 33.9208 -84.4869 25° Northeast 322 371 11,500  Level Atlanta Center
Sun 10:02:00 PM 34.1775 -84.2667 North  Level FlightAware Approximate
Sun 10:02:43 PM 34.0253 -84.4322 23° Northeast 367 422 13,400  Level Atlanta Center
Sun 10:03:43 PM 34.1256 -84.3725 26° Northeast 389 448 15,900 2,450 Climbing Atlanta Center
Sun 10:04:43 PM 34.2344 -84.3128 24° Northeast 408 470 18,300 1,700 Climbing Atlanta Center
Sun 10:05:43 PM 34.3514 -84.2653 19° North 420 483 19,300 1,350 Climbing Atlanta Center
Sun 10:06:43 PM 34.4744 -84.2378 10° North 434 499 21,000 1,650 Climbing Atlanta Center
Sun 10:07:43 PM 34.6019 -84.2078 11° North 453 521 22,600 1,500 Climbing Atlanta Center
Sun 10:08:43 PM 34.7314 -84.1778 11° North 459 528 24,000 1,300 Climbing Atlanta Center
Sun 10:09:43 PM 34.8606 -84.1425 13° North 465 535 25,200 1,250 Climbing Atlanta Center
Sun 10:10:43 PM 34.9922 -84.1147 10° North 471 542 26,500 1,300 Climbing Atlanta Center
Sun 10:11:43 PM 35.1236 -84.0794 12° North 471 542 27,800 1,250 Climbing Atlanta Center
Sun 10:12:43 PM 35.2489 -84.0261 19° North 471 542 29,000 1,150 Climbing Atlanta Center
Sun 10:13:43 PM 35.3761 -83.9750 18° North 476 548 30,100 1,050 Climbing Atlanta Center
Sun 10:14:43 PM 35.4969 -83.9214 20° North 476 548 31,100 1,000 Climbing Atlanta Center
Sun 10:15:43 PM 35.6222 -83.8675 19° North 469 540 32,100 900 Climbing Atlanta Center
Sun 10:16:43 PM 35.7453 -83.8161 19° North 464 534 32,900 450 Climbing Atlanta Center
Sun 10:17:43 PM 35.8722 -83.7619 19° North 469 540 33,000 33 Climbing Atlanta Center
Sun 10:19:43 PM 36.1200 -83.6556 19° North 474 545 33,000  Level Indianapolis Center
Sun 10:20:44 PM 36.2444 -83.6014 19° North 473 544 33,000  Level Indianapolis Center
Sun 10:21:45 PM 36.3678 -83.5467 20° North 473 544 33,000  Level Indianapolis Center
Sun 10:22:46 PM 36.4914 -83.4931 19° North 471 542 33,000  Level Indianapolis Center
Sun 10:23:47 PM 36.6347 -83.4250 21° North 471 542 33,000  Level Indianapolis Center
Sun 10:24:48 PM 36.7442 -83.3250 36° Northeast 483 556 33,000  Level Indianapolis Center
Sun 10:26:50 PM 36.9600 -83.1239 39° Northeast 482 555 33,000  Level Indianapolis Center
Sun 10:27:51 PM 37.0700 -83.0206 37° Northeast 482 555 33,000  Level Indianapolis Center
Sun 10:28:52 PM 37.1783 -82.9175 37° Northeast 482 555 33,000  Level Indianapolis Center
Sun 10:29:53 PM 37.2833 -82.8164 37° Northeast 476 548 33,000  Level Indianapolis Center
Sun 10:30:54 PM 37.3883 -82.7169 37° Northeast 475 547 33,000  Level Indianapolis Center
Sun 10:31:55 PM 37.4928 -82.6178 37° Northeast 474 545 33,000  Level Indianapolis Center
Sun 10:32:56 PM 37.5967 -82.5172 37° Northeast 473 544 33,000  Level Indianapolis Center
Sun 10:33:57 PM 37.7011 -82.4178 37° Northeast 470 541 33,000  Level Indianapolis Center
Sun 10:34:58 PM 37.8047 -82.3158 38° Northeast 470 541 33,000  Level Indianapolis Center
Sun 10:35:59 PM 37.9086 -82.2139 38° Northeast 471 542 33,000  Level Indianapolis Center
Sun 10:37:00 PM 38.0114 -82.1111 38° Northeast 471 542 33,000  Level Indianapolis Center
Sun 10:38:01 PM 38.1133 -82.0081 38° Northeast 470 541 33,000  Level Indianapolis Center
Sun 10:39:02 PM 38.2164 -81.9053 38° Northeast 470 541 33,000  Level Indianapolis Center
Sun 10:40:03 PM 38.3192 -81.8025 38° Northeast 470 541 33,000  Level Indianapolis Center
Sun 10:41:04 PM 38.4119 -81.6867 44° Northeast 469 540 33,000  Level Indianapolis Center
Sun 10:42:05 PM 38.5150 -81.5347 49° Northeast 473 544 33,000  Level Indianapolis Center
Sun 10:43:06 PM 38.5994 -81.4092 49° Northeast 474 545 33,000  Level Indianapolis Center
Sun 10:44:07 PM 38.6858 -81.2861 48° Northeast 474 545 33,000  Level Indianapolis Center
Sun 10:45:07 PM 38.7725 -81.1636 48° Northeast 473 544 33,000  Level Indianapolis Center
Sun 10:46:08 PM 38.8597 -81.0383 48° Northeast 473 544 33,000  Level Indianapolis Center
Sun 10:47:09 PM 38.9453 -80.9142 48° Northeast 472 543 33,000  Level Indianapolis Center
Sun 10:48:10 PM 39.0297 -80.7911 49° Northeast 467 537 33,000  Level Indianapolis Center
Sun 10:49:11 PM 39.1153 -80.6725 47° Northeast 457 526 33,000  Level Indianapolis Center
Sun 10:50:12 PM 39.2022 -80.5531 47° Northeast 457 526 33,000  Level Indianapolis Center
Sun 10:51:13 PM 39.2875 -80.4350 47° Northeast 455 524 33,000  Level Indianapolis Center
Sun 10:52:14 PM 39.3883 -80.2839 49° Northeast 457 526 33,000  Level Indianapolis Center
Sun 10:53:31 PM 39.4803 -80.1258 53° Northeast 466 536 33,000  Level Cleveland Center
Sun 10:54:32 PM 39.5567 -79.9911 54° Northeast 467 537 33,000  Level Cleveland Center
Sun 10:55:33 PM 39.6319 -79.8561 54° Northeast 467 537 33,000  Level Cleveland Center
Sun 10:56:34 PM 39.7072 -79.7239 53° Northeast 463 533 33,000  Level Cleveland Center
Sun 10:57:35 PM 39.7819 -79.5889 54° Northeast 462 532 33,000  Level Cleveland Center
Sun 10:58:36 PM 39.8711 -79.4283 54° Northeast 462 532 33,000  Level Cleveland Center
Sun 10:59:37 PM 39.9458 -79.2958 54° Northeast 459 528 33,000  Level Cleveland Center
Sun 11:00:38 PM 40.0208 -79.1611 54° Northeast 459 528 33,000  Level Cleveland Center
Sun 11:01:39 PM 40.0897 -79.0378 54° Northeast 461 531 33,000  Level Cleveland Center
Sun 11:02:40 PM 40.1775 -78.8778 54° Northeast 461 531 33,000  Level Cleveland Center
Sun 11:03:42 PM 40.2508 -78.7433 54° Northeast 460 529 33,000  Level Cleveland Center
Sun 11:04:43 PM 40.3239 -78.6094 54° Northeast 460 529 33,000  Level Cleveland Center
Sun 11:05:44 PM 40.3989 -78.4714 54° Northeast 464 534 33,000  Level Cleveland Center
Sun 11:06:45 PM 40.4728 -78.3356 54° Northeast 464 534 33,000  Level Cleveland Center
Sun 11:07:46 PM 40.5458 -78.1989 55° Northeast 464 534 33,000  Level Cleveland Center
Sun 11:08:47 PM 40.6189 -78.0625 55° Northeast 464 534 33,000 -39 Level Cleveland Center
Sun 11:10:18 PM 40.7467 -77.8633 50° Northeast 462 532 32,900 -496 Descending New York Center
Sun 11:10:48 PM 40.8011 -77.7881 46° Northeast 458 527 32,000 -1,582 Descending Cleveland Center
Sun 11:11:49 PM 40.8847 -77.6644 48° Northeast 458 527 30,500 -1,082 Descending Cleveland Center
Sun 11:12:50 PM 40.9708 -77.5383 48° Northeast 464 534 29,800 -639 Descending Cleveland Center
Sun 11:13:51 PM 41.0556 -77.4111 49° Northeast 465 535 29,200 -393 Descending Cleveland Center
Sun 11:14:52 PM 41.1408 -77.2825 49° Northeast 465 535 29,000 -98 Descending Cleveland Center
Sun 11:15:53 PM 41.2275 -77.1556 48° Northeast 466 536 29,000  Level Cleveland Center
Sun 11:16:54 PM 41.3122 -77.0264 49° Northeast 466 536 29,000  Level Cleveland Center
Sun 11:17:55 PM 41.4144 -76.8725 48° Northeast 467 537 29,000  Level Cleveland Center
Sun 11:18:56 PM 41.4989 -76.7442 49° Northeast 467 537 29,000  Level Cleveland Center
Sun 11:20:18 PM 41.6083 -76.5833 48° Northeast 463 533 29,000  Level New York Center
Sun 11:21:17 PM 41.6936 -76.4544 48° Northeast 463 533 29,000 -420 Level New York Center
Sun 11:22:55 PM 41.8428 -76.2208 49° Northeast 466 536 27,900 -755 Descending Boston Center
Sun 11:23:56 PM 41.9294 -76.0858 49° Northeast 469 540 27,000 -738 Descending Boston Center
Sun 11:24:57 PM 41.9933 -75.9269 62° Northeast 486 559 26,400 -934 Descending Boston Center
Sun 11:25:58 PM 42.0481 -75.7617 66° East 486 559 25,100 -1,190 Descending Boston Center
Sun 11:26:58 PM 42.1022 -75.5925 67° East 486 559 24,000 -694 Descending Boston Center
Sun 11:27:59 PM 42.1569 -75.4247 66° East 490 564 23,700 -787 Descending Boston Center
Sun 11:29:00 PM 42.2078 -75.2617 67° East 475 547 22,400 -1,328 Descending Boston Center
Sun 11:30:01 PM 42.2567 -75.1064 67° East 459 528 21,000 -1,686 Descending Boston Center
Sun 11:31:01 PM 42.3033 -74.9533 68° East 446 513 19,000 -2,231 Descending Boston Center
Sun 11:32:02 PM 42.3472 -74.8086 68° East 424 488 16,500 -2,705 Descending Boston Center
Sun 11:33:03 PM 42.3967 -74.6511 67° East 413 475 13,500 -2,842 Descending Boston Center
Sun 11:33:18 PM 42.4047 -74.6178 72° East 407 468 12,900 -2,667 Descending Boston Center
Sun 11:33:48 PM 42.4294 -74.5453 65° Northeast 400 460 11,500 -2,267 Descending Boston Center
Sun 11:34:03 PM 42.4392 -74.5122 68° East 405 466 11,200 -492 Descending Boston Center
Sun 11:34:49 PM 42.4686 -74.4078 69° East 393 452 11,000 -295 Descending Boston Center
Sun 11:35:04 PM 42.4797 -74.3756 65° Northeast 398 458 10,900 -800 Descending Boston Center
Sun 11:35:49 PM 42.5033 -74.2803 71° East 358 412 10,200 -689 Descending Boston Center
Sun 11:36:05 PM 42.5086 -74.2500 77° East 351 404 10,200 -1,279 Level Boston Center
Sun 11:36:50 PM 42.5189 -74.1633 81° East 297 342 8,900 -1,967 Descending Boston Center
Sun 11:37:06 PM 42.5231 -74.1353 79° East 312 359 8,200 -1,895 Descending Boston Center
Sun 11:38:06 PM 42.5386 -74.0233 79° East 286 329 6,500 -1,657 Descending Boston Center
Sun 11:38:51 PM 42.5456 -73.9633 81° East 232 267 5,300 -1,770 Descending Boston Center
Sun 11:39:07 PM 42.5489 -73.9378 80° East 237 273 4,700 -1,672 Descending Boston Center
Sun 11:39:52 PM 42.5547 -73.8792 82° East 222 255 3,600 -1,770 Descending Boston Center
Sun 11:40:08 PM 42.5586 -73.8550 78° East 226 260 2,900 -1,100 Descending Boston Center
Sun 11:40:52 PM 42.5833 -73.8164 49° Northeast 174 200 2,500 -400 Descending Boston Center
Sun 11:41:08 PM 42.5928 -73.8089 30° Northeast 175 201 2,500  Level Boston Center
Sun 11:41:53 PM 42.6250 -73.8011 10° North 148 170 2,500 -197 Level Boston Center
Sun 11:42:09 PM 42.6350 -73.7997 North 155 178 2,300 -689 Descending Boston Center
Sun 11:42:54 PM 42.6614 -73.8019 356° North 122 140 1,800 -590 Descending Boston Center
Sun 11:43:10 PM 42.6694 -73.8014 North 131 151 1,700 -600 Descending Boston Center
Sun 11:43:54 PM 42.6956 -73.8019 359° North 122 140 1,200 -800 Descending Boston Center
Sun 11:44:10 PM 42.7072 -73.8031 356° North 126 145 900 -701 Descending Boston Center
Sun 11:45:11 PM 42.7453 -73.8050 358° North 133 153 300 -590 Descending Boston Center

Login

Don't have an account? Register now (free) for customized features, flight alerts, and more!